Time;durP1;ratioP1;P1;durP2;ratioP2;P2;SDS_P1;SDS_P2;PMS_P1;PMS_P2;Temp;Humidity;BMP_temperature;BMP_pressure;BME280_temperature;BME280_humidity;BME280_pressure;Samples;Min_cycle;Max_cycle;Signal;HPM_P1;HPM_P2
2023/06/08 00:00:08;;;;;;;4.43;2.72;;;;;;;16.26;68.01;99408.63;5066117;28;20034;-87
2023/06/08 00:02:33;;;;;;;9.32;2.65;;;;;;;16.14;68.65;99408.34;5081800;28;20038;-87
2023/06/08 00:05:02;;;;;;;6.97;2.63;;;;;;;16.06;68.42;99419.91;5082147;28;20027;-87
2023/06/08 00:07:28;;;;;;;3.20;2.40;;;;;;;15.96;68.68;99410.88;5065575;28;20039;-87
2023/06/08 00:09:53;;;;;;;3.00;2.40;;;;;;;15.93;68.66;99421.53;5065050;28;20026;-87
2023/06/08 00:12:19;;;;;;;5.93;2.35;;;;;;;15.88;68.43;99414.31;5064650;28;20034;-86
2023/06/08 00:14:45;;;;;;;3.85;2.38;;;;;;;15.87;69.00;99409.16;5064897;28;20455;-85
2023/06/08 00:17:10;;;;;;;6.35;2.50;;;;;;;15.78;69.23;99405.56;5064596;28;20027;-86
2023/06/08 00:19:36;;;;;;;5.95;2.50;;;;;;;15.73;69.47;99406.47;5081887;28;20077;-86
2023/06/08 00:22:05;;;;;;;6.35;2.50;;;;;;;15.71;69.24;99400.50;5064607;28;20386;-86
2023/06/08 00:24:34;;;;;;;5.75;2.65;;;;;;;15.67;69.53;99407.66;5082486;28;20030;-86
2023/06/08 00:27:00;;;;;;;4.05;2.72;;;;;;;15.61;69.82;99406.13;5065077;28;20457;-86
2023/06/08 00:29:25;;;;;;;3.38;2.53;;;;;;;15.65;69.76;99404.44;5065015;28;20015;-87
2023/06/08 00:31:52;;;;;;;4.65;2.90;;;;;;;15.64;69.61;99400.09;5082508;28;20027;-86
2023/06/08 00:34:17;;;;;;;4.55;2.70;;;;;;;15.57;69.97;99404.00;5064375;28;20068;-87
2023/06/08 00:36:43;;;;;;;5.53;2.60;;;;;;;15.53;70.40;99394.88;5081373;28;20024;-86
2023/06/08 00:39:08;;;;;;;7.00;2.90;;;;;;;15.52;69.61;99395.97;5064318;28;20016;-86
2023/06/08 00:41:34;;;;;;;11.15;2.67;;;;;;;15.59;69.79;99403.72;5065039;28;20023;-87
2023/06/08 00:43:59;;;;;;;4.43;2.63;;;;;;;15.49;70.17;99393.84;5074955;28;20023;-87
2023/06/08 00:46:25;;;;;;;5.38;2.60;;;;;;;15.50;70.29;99398.19;5091499;28;20023;-86
2023/06/08 00:48:51;;;;;;;6.75;3.38;;;;;;;15.46;69.84;99390.94;5067281;27;20036;-87
2023/06/08 00:51:17;;;;;;;8.93;3.83;;;;;;;15.40;69.83;99389.41;5084449;27;20025;-87
2023/06/08 00:53:43;;;;;;;4.30;2.45;;;;;;;15.36;70.62;99387.31;5084201;27;20453;-86
2023/06/08 00:56:08;;;;;;;4.68;2.78;;;;;;;15.37;70.37;99390.81;5101855;27;20047;-87
2023/06/08 00:58:37;;;;;;;3.95;2.70;;;;;;;15.31;70.48;99389.31;5101668;27;20469;-86
2023/06/08 01:01:04;;;;;;;4.43;2.95;;;;;;;15.29;70.31;99386.91;5085093;27;20023;-85
2023/06/08 01:03:35;;;;;;;4.65;2.67;;;;;;;15.21;70.60;99386.78;5084943;27;20016;-85
2023/06/08 01:06:07;;;;;;;5.65;2.55;;;;;;;15.20;70.27;99387.91;5085813;27;20033;-85
2023/06/08 01:08:39;;;;;;;4.22;2.40;;;;;;;15.15;70.34;99389.59;5102352;27;20027;-86
2023/06/08 01:11:11;;;;;;;3.70;2.72;;;;;;;15.07;70.35;99389.47;5117833;27;20026;-85
2023/06/08 01:13:41;;;;;;;5.55;2.22;;;;;;;14.95;71.15;99377.19;5136397;27;20067;-85
2023/06/08 01:16:07;;;;;;;4.82;2.67;;;;;;;14.98;71.22;99391.25;5100877;27;20027;-85
2023/06/08 01:18:38;;;;;;;4.60;2.53;;;;;;;14.81;71.31;99370.13;5066968;28;20081;-86
2023/06/08 01:21:25;;;;;;;5.85;2.83;;;;;;;14.87;71.22;99385.19;5053648;28;20049;-85
2023/06/08 01:24:12;;;;;;;4.07;2.50;;;;;;;14.79;71.70;99386.66;5094000;28;20024;-86
2023/06/08 01:26:42;;;;;;;5.57;2.80;;;;;;;14.75;71.65;99385.66;5086137;28;20468;-86
2023/06/08 01:29:09;;;;;;;5.68;2.45;;;;;;;14.81;71.17;99383.66;5044647;28;20031;-86
2023/06/08 01:31:36;;;;;;;6.22;2.63;;;;;;;14.76;71.65;99376.44;5060460;28;20482;-85
2023/06/08 01:34:02;;;;;;;5.78;2.70;;;;;;;14.77;71.93;99379.94;5043900;28;20028;-86
2023/06/08 01:36:33;;;;;;;7.68;3.17;;;;;;;14.80;72.00;99388.28;5059646;28;20020;-86
2023/06/08 01:39:20;;;;;;;13.05;2.95;;;;;;;14.75;71.56;99370.22;5104252;28;20077;-85
2023/06/08 01:41:47;;;;;;;4.18;2.90;;;;;;;14.73;71.53;99377.84;5088813;28;20034;-85
2023/06/08 01:44:14;;;;;;;3.63;2.83;;;;;;;14.75;71.65;99374.81;5088593;28;20030;-86
2023/06/08 01:46:40;;;;;;;4.30;2.60;;;;;;;14.74;71.42;99374.00;5106186;28;20023;-86
2023/06/08 01:49:05;;;;;;;5.03;2.40;;;;;;;14.69;71.53;99359.72;5085597;27;20109;-86
2023/06/08 01:51:31;;;;;;;4.95;2.83;;;;;;;14.61;71.96;99376.66;5083103;28;20031;-85
2023/06/08 01:54:04;;;;;;;4.90;2.33;;;;;;;14.59;71.88;99378.84;5074148;28;20509;-86
2023/06/08 01:56:34;;;;;;;3.22;2.35;;;;;;;14.59;71.91;99385.09;5080297;28;20061;-86
2023/06/08 01:58:59;;;;;;;3.55;2.60;;;;;;;14.41;72.44;99375.06;5089260;28;20033;-86
2023/06/08 02:01:25;;;;;;;5.13;2.50;;;;;;;14.35;72.52;99366.19;5100559;28;20482;-85
2023/06/08 02:03:50;;;;;;;4.82;3.03;;;;;;;14.34;72.31;99376.22;5083347;28;20038;-86
2023/06/08 02:06:16;;;;;;;2.90;2.28;;;;;;;14.36;72.36;99378.66;5083485;28;20023;-85
2023/06/08 02:08:43;;;;;;;3.75;2.42;;;;;;;14.27;72.59;99385.81;5099383;28;20016;-86
2023/06/08 02:11:09;;;;;;;4.82;2.40;;;;;;;14.27;72.53;99370.34;5117669;28;20040;-85
2023/06/08 02:13:38;;;;;;;4.63;2.80;;;;;;;14.25;72.83;99388.78;5100540;28;20047;-85
2023/06/08 02:16:04;;;;;;;7.18;3.22;;;;;;;14.30;72.88;99383.31;5100295;28;20033;-86
2023/06/08 02:18:30;;;;;;;6.35;4.20;;;;;;;14.26;72.75;99387.72;5099911;28;20031;-85
2023/06/08 02:20:56;;;;;;;6.15;3.10;;;;;;;14.27;72.64;99362.22;5100924;28;20027;-85
2023/06/08 02:23:21;;;;;;;3.95;2.78;;;;;;;14.25;72.45;99369.84;5082917;28;20110;-86
2023/06/08 02:25:50;;;;;;;6.50;3.30;;;;;;;14.29;72.56;99372.78;5095438;28;20031;-86
2023/06/08 02:28:16;;;;;;;6.30;3.45;;;;;;;14.23;72.47;99380.16;5079453;28;20016;-85
2023/06/08 02:30:41;;;;;;;5.93;3.00;;;;;;;14.17;72.62;99381.31;5097166;28;20054;-85
2023/06/08 02:33:08;;;;;;;9.90;3.20;;;;;;;14.12;72.50;99374.09;5063571;28;20047;-85
2023/06/08 02:35:33;;;;;;;5.53;3.50;;;;;;;14.07;73.17;99365.22;5063720;28;20481;-86
2023/06/08 02:37:59;;;;;;;6.70;3.65;;;;;;;14.12;73.04;99376.78;5063312;28;20106;-85
2023/06/08 02:40:24;;;;;;;7.10;4.18;;;;;;;14.09;73.42;99380.09;5063117;28;20016;-85
2023/06/08 02:42:50;;;;;;;7.63;4.20;;;;;;;14.04;73.51;99363.09;5063207;28;20020;-85
2023/06/08 02:45:15;;;;;;;4.93;3.35;;;;;;;13.99;73.18;99369.41;5080033;28;20050;-85
2023/06/08 02:47:41;;;;;;;13.73;3.90;;;;;;;13.90;73.20;99371.97;5062725;28;20027;-85
2023/06/08 02:50:07;;;;;;;6.30;3.88;;;;;;;13.94;73.43;99375.69;5075744;28;20096;-86
2023/06/08 02:52:32;;;;;;;8.38;3.30;;;;;;;13.85;73.91;99390.94;5083409;28;20392;-85
2023/06/08 02:54:58;;;;;;;5.25;3.55;;;;;;;13.86;73.96;99386.34;5082960;28;20019;-86
2023/06/08 02:57:23;;;;;;;6.20;3.47;;;;;;;13.87;73.71;99379.84;5084266;27;20026;-85
2023/06/08 02:59:49;;;;;;;6.05;3.30;;;;;;;13.80;73.69;99379.38;5086446;27;20019;-86
2023/06/08 03:02:14;;;;;;;6.75;3.30;;;;;;;13.75;73.68;99383.75;5076117;28;20094;-86
2023/06/08 03:04:43;;;;;;;7.28;3.50;;;;;;;13.83;73.46;99393.13;5063964;28;20051;-86
2023/06/08 03:07:10;;;;;;;8.30;3.53;;;;;;;13.69;74.06;99389.53;5068898;28;20404;-85
2023/06/08 03:09:35;;;;;;;7.40;3.05;;;;;;;13.72;73.69;99384.34;5071620;27;20019;-85
2023/06/08 03:12:02;;;;;;;9.32;4.35;;;;;;;13.75;73.88;99391.88;5086307;27;20023;-85
2023/06/08 03:14:30;;;;;;;5.25;3.15;;;;;;;13.77;73.66;99388.88;5074026;28;20028;-85
2023/06/08 03:17:02;;;;;;;4.97;3.58;;;;;;;13.77;73.74;99390.78;5077155;28;20023;-85
2023/06/08 03:19:30;;;;;;;;;;;;;;;13.88;73.45;99416.63;5065241;28;20093;-85
2023/06/08 03:21:58;;;;;;;6.18;3.60;;;;;;;13.78;73.76;99398.63;5082982;28;19912;-85
2023/06/08 03:24:23;;;;;;;9.27;4.10;;;;;;;13.71;73.96;99388.13;5083044;28;20035;-87
2023/06/08 03:26:49;;;;;;;5.15;3.20;;;;;;;13.72;74.04;99394.38;5063136;28;20081;-86
2023/06/08 03:29:15;;;;;;;7.78;3.55;;;;;;;13.84;73.73;99400.19;5062994;28;20520;-87
2023/06/08 03:31:40;;;;;;;9.20;3.22;;;;;;;13.85;73.39;99392.84;5062578;28;20027;-87
2023/06/08 03:34:06;;;;;;;7.18;3.50;;;;;;;13.92;73.51;99396.00;5062916;28;20119;-87
2023/06/08 03:36:35;;;;;;;6.15;3.13;;;;;;;14.00;73.06;99397.28;5063474;28;20410;-86
2023/06/08 03:39:01;;;;;;;5.82;3.25;;;;;;;14.02;73.00;99401.28;5047207;28;20016;-87
2023/06/08 03:41:27;;;;;;;5.80;3.38;;;;;;;14.14;73.21;99409.00;5046273;28;20019;-86
2023/06/08 03:43:53;;;;;;;12.27;4.38;;;;;;;14.11;72.85;99398.72;5046426;28;20118;-87
2023/06/08 03:46:18;;;;;;;9.35;4.53;;;;;;;14.07;72.90;99397.72;5074562;27;20016;-87
2023/06/08 03:48:43;;;;;;;15.90;4.68;;;;;;;14.13;72.56;99408.19;5085810;27;20083;-86
2023/06/08 03:51:09;;;;;;;6.32;4.07;;;;;;;14.19;72.76;99408.13;5078797;28;20081;-87
2023/06/08 03:53:35;;;;;;;7.32;3.97;;;;;;;14.27;72.20;99407.47;5082302;28;20031;-87
2023/06/08 03:56:02;;;;;;;8.35;3.70;;;;;;;14.27;72.37;99402.84;5081762;28;20421;-87
2023/06/08 03:58:30;;;;;;;6.68;3.70;;;;;;;14.40;71.78;99408.63;5099782;28;20020;-89
2023/06/08 04:00:56;;;;;;;6.43;3.70;;;;;;;14.42;71.80;99406.44;5065957;28;20080;-87
2023/06/08 04:03:24;;;;;;;10.02;3.95;;;;;;;14.43;71.87;99408.06;5066021;28;20031;-88
2023/06/08 04:05:51;;;;;;;4.60;3.25;;;;;;;14.48;71.24;99410.69;5066589;28;20031;-87
2023/06/08 04:08:17;;;;;;;5.47;2.97;;;;;;;14.55;71.20;99405.72;5062368;27;20024;-87
2023/06/08 04:10:43;;;;;;;12.85;4.28;;;;;;;14.50;71.69;99401.16;5066155;28;20034;-86
2023/06/08 04:13:08;;;;;;;4.63;3.40;;;;;;;14.66;71.18;99415.34;5066193;28;20508;-88
2023/06/08 04:15:34;;;;;;;7.20;3.40;;;;;;;14.82;71.07;99407.78;5074025;27;20075;-90
2023/06/08 04:18:03;;;;;;;7.20;3.67;;;;;;;14.86;70.30;99410.72;5086751;27;20054;-87
2023/06/08 04:20:28;;;;;;;8.35;3.83;;;;;;;14.94;70.58;99418.13;5077599;28;20015;-87
2023/06/08 04:22:53;;;;;;;10.70;3.30;;;;;;;14.94;70.65;99405.41;5065078;28;20020;-89
2023/06/08 04:25:19;;;;;;;12.90;3.67;;;;;;;15.11;70.43;99409.47;5066178;28;20412;-90
2023/06/08 04:27:46;;;;;;;4.97;3.20;;;;;;;15.16;69.94;99412.88;5061251;28;20024;-88
2023/06/08 04:30:11;;;;;;;7.85;3.20;;;;;;;15.16;69.81;99410.19;5061185;28;20024;-87
2023/06/08 04:32:37;;;;;;;5.70;3.05;;;;;;;15.25;69.13;99407.59;5048520;28;20081;-90
2023/06/08 04:35:03;;;;;;;7.80;3.45;;;;;;;15.46;69.21;99416.19;5045291;28;20016;-87
2023/06/08 04:37:29;;;;;;;8.88;4.05;;;;;;;15.62;68.72;99429.44;5116708;27;20023;-86
2023/06/08 04:39:56;;;;;;;5.70;3.33;;;;;;;15.68;67.80;99420.91;5070146;28;20489;-87
2023/06/08 04:42:23;;;;;;;6.75;3.50;;;;;;;15.71;67.43;99412.16;5078276;28;20091;-88
2023/06/08 04:44:50;;;;;;;8.57;3.60;;;;;;;15.87;67.18;99418.09;5072183;28;20054;-88
2023/06/08 04:47:16;;;;;;;15.02;3.95;;;;;;;15.94;67.33;99421.25;5070068;28;20020;-88
2023/06/08 04:49:42;;;;;;;4.95;3.30;;;;;;;16.07;66.57;99419.63;5073024;28;20455;-92
2023/06/08 04:52:28;;;;;;;7.88;3.70;;;;;;;16.08;65.77;99417.69;5080446;28;20016;-92
2023/06/08 04:54:53;;;;;;;6.75;3.30;;;;;;;16.19;66.18;99438.13;5041481;28;20043;-92
2023/06/08 04:57:23;;;;;;;7.22;3.33;;;;;;;16.26;65.82;99424.91;5087976;28;20473;-93
2023/06/08 04:59:51;;;;;;;9.32;2.90;;;;;;;16.34;66.33;99429.63;5100200;28;20104;-93
2023/06/08 05:02:18;;;;;;;4.35;2.85;;;;;;;16.51;65.25;99431.69;5091221;28;20122;-93
2023/06/08 05:04:44;;;;;;;6.47;3.45;;;;;;;16.63;65.14;99430.38;5085270;28;20027;-94
2023/06/08 05:07:10;;;;;;;9.35;5.15;;;;;;;16.64;64.36;99432.75;5083972;28;20077;-94
2023/06/08 05:09:35;;;;;;;6.63;3.28;;;;;;;16.90;64.23;99432.22;5083177;28;20028;-94
2023/06/08 05:12:05;;;;;;;6.38;3.78;;;;;;;17.03;64.19;99427.81;5086371;28;20031;-93
2023/06/08 05:14:30;;;;;;;8.07;3.80;;;;;;;17.19;64.02;99433.69;5084496;28;20104;-94
2023/06/08 05:16:56;;;;;;;9.57;4.82;;;;;;;17.37;63.77;99435.41;5086770;28;20043;-93
2023/06/08 05:19:21;;;;;;;9.88;4.53;;;;;;;17.38;63.68;99428.81;5080710;28;20020;-93
2023/06/08 05:21:47;;;;;;;8.70;4.68;;;;;;;17.40;63.59;99428.50;5064468;28;20020;-92
2023/06/08 05:24:22;;;;;;;9.90;4.32;;;;;;;17.19;64.02;99420.88;5063633;28;20032;-91
2023/06/08 05:26:48;;;;;;;10.93;3.97;;;;;;;17.44;63.68;99438.47;5060999;28;20107;-95
2023/06/08 05:29:18;;;;;;;7.55;4.80;;;;;;;17.28;64.11;99415.47;5076154;28;20023;-94
2023/06/08 05:31:45;;;;;;;8.05;5.55;;;;;;;17.60;63.68;99435.31;5084376;28;20522;-94
2023/06/08 05:34:11;;;;;;;8.07;4.93;;;;;;;17.72;63.14;99432.81;5057227;28;20048;-91
2023/06/08 05:36:38;;;;;;;9.50;4.80;;;;;;;17.79;62.51;99433.19;5058133;28;20060;-90
2023/06/08 05:39:12;;;;;;;8.15;6.28;;;;;;;17.95;62.96;99442.56;5027142;28;20028;-91
2023/06/08 05:41:39;;;;;;;11.75;6.65;;;;;;;18.13;62.35;99439.88;5059828;28;20043;-91
2023/06/08 05:44:04;;;;;;;12.20;7.15;;;;;;;18.06;63.30;99445.00;5043571;28;20123;-93
2023/06/08 05:46:31;;;;;;;11.50;6.80;;;;;;;18.17;63.23;99438.91;5049891;28;20140;-94
2023/06/08 05:48:57;;;;;;;9.20;7.30;;;;;;;18.33;62.44;99449.38;5076283;28;20168;-92
2023/06/08 05:51:27;;;;;;;10.05;6.97;;;;;;;18.30;62.47;99437.19;5067243;28;20470;-92
2023/06/08 05:53:52;;;;;;;10.88;6.93;;;;;;;18.48;62.62;99448.09;5094077;28;20183;-93
2023/06/08 05:56:18;;;;;;;9.20;6.15;;;;;;;18.50;62.91;99413.16;5085817;28;20067;-95
2023/06/08 05:58:43;;;;;;;9.13;5.28;;;;;;;18.53;61.13;99409.75;5081835;28;20024;-92
2023/06/08 06:01:12;;;;;;;8.63;5.90;;;;;;;18.56;61.08;99401.75;5058278;28;20035;-87
2023/06/08 06:03:37;;;;;;;13.75;6.32;;;;;;;18.83;61.22;99412.69;5095191;28;20066;-88
2023/06/08 06:06:03;;;;;;;6.30;4.75;;;;;;;19.07;60.08;99414.88;5060118;28;20097;-87
2023/06/08 06:08:28;;;;;;;6.15;3.47;;;;;;;19.33;59.62;99432.00;5060145;28;20058;-88
2023/06/08 06:10:56;;;;;;;12.75;4.60;;;;;;;19.43;59.46;99425.41;5049913;28;20036;-88
2023/06/08 06:13:26;;;;;;;10.65;4.45;;;;;;;19.23;59.97;99396.88;5061438;28;20047;-87
2023/06/08 06:15:52;;;;;;;9.77;5.70;;;;;;;19.50;59.65;99422.97;5076609;28;20036;-91
2023/06/08 06:18:17;;;;;;;8.32;5.35;;;;;;;19.38;59.17;99404.56;5079040;28;20043;-87
2023/06/08 06:20:43;;;;;;;9.95;4.65;;;;;;;19.59;58.68;99434.69;5065325;28;20047;-87
2023/06/08 06:23:08;;;;;;;10.38;4.53;;;;;;;19.48;59.20;99427.16;5082585;28;20024;-88
2023/06/08 06:25:35;;;;;;;9.00;4.78;;;;;;;19.46;59.66;99415.75;5084983;28;20039;-87
2023/06/08 06:28:03;;;;;;;8.05;5.20;;;;;;;19.55;59.03;99414.59;5089029;28;20561;-87
2023/06/08 06:30:30;;;;;;;6.80;4.55;;;;;;;19.87;58.77;99419.81;5071514;28;20089;-89
2023/06/08 06:32:56;;;;;;;7.75;4.35;;;;;;;20.07;58.40;99421.78;5089446;28;20008;-87
2023/06/08 06:35:24;;;;;;;12.93;4.97;;;;;;;20.28;56.65;99423.75;5085738;28;20028;-87
2023/06/08 06:37:53;;;;;;;8.13;4.45;;;;;;;20.42;56.58;99437.16;5079532;28;20024;-89
2023/06/08 06:40:18;;;;;;;6.22;3.85;;;;;;;20.50;56.11;99425.34;5086024;28;20095;-86
2023/06/08 06:42:44;;;;;;;7.10;3.80;;;;;;;20.49;56.13;99412.81;5103290;28;20074;-88
2023/06/08 06:45:25;;;;;;;8.90;4.47;;;;;;;20.35;56.11;99386.50;5087723;28;20027;-87
2023/06/08 06:47:50;;;;;;;5.65;3.22;;;;;;;20.54;55.11;99410.69;5071693;28;20409;-88
2023/06/08 06:50:16;;;;;;;23.83;9.95;;;;;;;20.58;55.04;99416.31;5075692;28;20052;-88
2023/06/08 06:52:41;;;;;;;7.32;3.33;;;;;;;20.64;54.48;99387.59;5080859;28;20034;-89
2023/06/08 06:55:07;;;;;;;5.95;2.90;;;;;;;20.84;53.60;99410.63;5082995;28;20383;-88
2023/06/08 06:58:00;;;;;;;4.85;2.47;;;;;;;20.69;49.56;99392.06;5075584;28;20035;-88
2023/06/08 07:00:37;;;;;;;5.90;2.10;;;;;;;20.96;47.29;99412.59;5090923;27;20528;-86
2023/06/08 07:06:03;;;;;;;5.68;2.28;;;;;;;20.99;49.26;99377.13;5097331;28;20040;-89
2023/06/08 07:08:29;;;;;;;3.80;2.50;;;;;;;20.85;50.90;99375.81;5080164;27;20072;-88
2023/06/08 07:10:55;;;;;;;4.85;2.50;;;;;;;20.66;51.51;99399.00;5078459;28;20092;-88
2023/06/08 07:13:22;;;;;;;5.53;3.25;;;;;;;20.90;51.35;99395.59;5072673;28;20495;-88
2023/06/08 07:15:48;;;;;;;5.25;2.40;;;;;;;21.15;50.40;99401.13;5074241;28;20144;-87
2023/06/08 07:18:13;;;;;;;4.82;2.45;;;;;;;21.02;50.50;99400.28;5081100;28;20020;-87
2023/06/08 07:20:42;;;;;;;5.90;2.30;;;;;;;21.13;50.86;99408.88;5051617;28;20024;-87
2023/06/08 07:23:08;;;;;;;4.05;2.40;;;;;;;20.97;50.34;99387.59;5050032;28;20056;-87
2023/06/08 07:25:33;;;;;;;5.88;2.67;;;;;;;21.26;49.91;99401.50;5076404;28;20039;-86
2023/06/08 07:28:02;;;;;;;7.20;2.55;;;;;;;21.27;50.06;99403.09;5093947;28;20027;-87
2023/06/08 07:30:27;;;;;;;4.47;2.63;;;;;;;21.37;50.23;99398.00;5087874;28;20032;-86
2023/06/08 07:32:55;;;;;;;4.47;2.33;;;;;;;21.52;48.95;99399.28;5077132;28;20024;-88
2023/06/08 07:35:20;;;;;;;6.32;3.65;;;;;;;21.61;48.85;99398.38;5069876;27;20026;-89
2023/06/08 07:37:46;;;;;;;4.13;2.60;;;;;;;21.74;48.57;99389.81;5077804;28;20028;-90
2023/06/08 07:40:12;;;;;;;4.65;2.22;;;;;;;21.75;48.45;99390.63;5077685;28;20024;-88
2023/06/08 07:42:38;;;;;;;4.25;2.53;;;;;;;21.96;48.54;99405.00;5091167;28;20030;-88
2023/06/08 07:45:16;;;;;;;12.20;4.65;;;;;;;22.11;48.90;99411.72;5109764;28;20027;-88
2023/06/08 07:47:42;;;;;;;7.13;3.30;;;;;;;22.09;49.60;99392.06;5077366;28;20027;-90
2023/06/08 07:50:08;;;;;;;6.68;3.05;;;;;;;22.19;49.33;99391.59;5092781;28;20040;-89
2023/06/08 07:52:35;;;;;;;5.45;3.30;;;;;;;22.40;49.34;99418.09;5090426;28;20031;-91
2023/06/08 07:55:02;;;;;;;8.90;3.53;;;;;;;22.29;48.98;99381.34;5117864;28;20062;-88
2023/06/08 07:57:28;;;;;;;5.32;2.45;;;;;;;22.29;48.19;99376.66;5084863;27;20377;-87
2023/06/08 07:59:54;;;;;;;4.63;3.08;;;;;;;22.44;47.66;99399.81;5121168;27;20034;-88
2023/06/08 08:02:20;;;;;;;6.18;2.70;;;;;;;22.46;47.19;99400.25;5105367;27;20662;-88
2023/06/08 08:04:46;;;;;;;6.15;2.88;;;;;;;22.38;47.27;99393.75;5093582;27;20058;-89
2023/06/08 08:07:13;;;;;;;9.93;3.15;;;;;;;22.44;46.43;99399.00;5104934;27;20027;-89
2023/06/08 08:09:44;;;;;;;6.18;2.53;;;;;;;22.35;44.44;99386.22;5121125;28;20047;-89
2023/06/08 08:12:10;;;;;;;4.68;2.50;;;;;;;22.56;45.25;99379.78;5089193;28;20027;-88
2023/06/08 08:14:36;;;;;;;4.05;2.55;;;;;;;22.55;46.16;99378.16;5086380;28;20050;-89
2023/06/08 08:17:03;;;;;;;6.72;2.83;;;;;;;22.75;46.29;99390.09;5083541;28;20088;-87
2023/06/08 08:19:28;;;;;;;6.95;3.03;;;;;;;22.77;46.98;99398.78;5081454;28;20054;-88
2023/06/08 08:21:54;;;;;;;4.82;2.63;;;;;;;22.69;45.98;99388.75;5081967;28;20019;-87
2023/06/08 08:24:19;;;;;;;4.65;2.67;;;;;;;22.57;44.69;99392.31;5082808;28;20027;-86
2023/06/08 08:26:47;;;;;;;4.18;2.55;;;;;;;22.71;43.77;99408.41;5084004;28;20046;-88
2023/06/08 08:29:12;;;;;;;6.28;2.75;;;;;;;22.60;44.03;99377.94;5086133;28;20050;-89
2023/06/08 08:31:38;;;;;;;5.20;2.83;;;;;;;22.73;44.81;99384.16;5085363;27;20033;-89
2023/06/08 08:34:03;;;;;;;5.88;3.60;;;;;;;22.79;44.84;99383.56;5084715;27;20060;-88
2023/06/08 08:36:29;;;;;;;4.38;2.50;;;;;;;22.86;44.15;99382.16;5116853;27;20042;-87
2023/06/08 08:38:54;;;;;;;21.02;11.48;;;;;;;22.88;43.13;99388.09;5081464;27;20108;-88
2023/06/08 08:41:20;;;;;;;11.15;4.40;;;;;;;23.05;43.15;99384.25;5086579;27;20034;-88
2023/06/08 08:44:57;;;;;;;;;;;;;;;;;;;;;
2023/06/08 08:47:26;;;;;;;5.28;2.72;;;;;;;23.40;42.29;99389.88;5060926;28;20084;-88
2023/06/08 08:50:06;;;;;;;5.50;2.50;;;;;;;23.33;43.13;99364.97;5069250;28;20480;-92
2023/06/08 08:52:37;;;;;;;7.57;3.05;;;;;;;23.46;42.26;99373.91;5065841;28;20031;-91
2023/06/08 08:55:06;;;;;;;8.43;2.50;;;;;;;23.64;42.53;99385.34;5065759;28;20024;-95
2023/06/08 08:57:32;;;;;;;7.50;4.32;;;;;;;23.73;41.76;99394.22;5056339;28;20073;-93
2023/06/08 09:00:28;;;;;;;12.13;5.78;;;;;;;23.67;40.94;99376.38;5069258;28;20035;-93
2023/06/08 09:02:54;;;;;;;3.85;2.53;;;;;;;23.86;40.12;99389.44;5099246;28;20031;-93
2023/06/08 09:05:22;;;;;;;4.32;2.47;;;;;;;23.77;40.42;99368.41;5069915;28;20023;-92
2023/06/08 09:07:48;;;;;;;5.47;3.63;;;;;;;23.85;40.32;99376.84;5067497;28;20015;-94
2023/06/08 09:10:22;;;;;;;5.05;2.20;;;;;;;23.89;40.56;99383.22;5068341;28;20034;-94
2023/06/08 09:12:52;;;;;;;8.98;3.25;;;;;;;23.95;35.65;99374.34;5080737;28;20047;-93
2023/06/08 09:15:28;;;;;;;4.93;2.20;;;;;;;24.17;33.11;99383.06;5064625;28;20046;-95
2023/06/08 09:17:55;;;;;;;4.18;2.13;;;;;;;24.22;34.03;99374.53;5071693;28;20066;-95
2023/06/08 09:20:31;;;;;;;3.72;2.28;;;;;;;24.16;34.17;99356.72;5069588;28;20032;-93
2023/06/08 09:22:59;;;;;;;3.97;1.92;;;;;;;24.15;33.64;99352.34;5066725;28;20023;-93
2023/06/08 09:25:38;;;;;;;5.60;1.85;;;;;;;24.22;35.33;99371.78;5068278;28;20040;-93
2023/06/08 09:28:16;;;;;;;4.93;2.60;;;;;;;24.31;37.48;99371.56;5082773;28;20402;-94
2023/06/08 09:30:52;;;;;;;5.38;2.55;;;;;;;24.34;38.15;99379.91;5054635;28;20024;-94
2023/06/08 09:33:21;;;;;;;4.43;2.22;;;;;;;24.23;36.86;99381.63;5067441;28;20040;-93
2023/06/08 09:35:58;;;;;;;3.50;2.45;;;;;;;24.19;35.15;99376.03;5084393;28;20045;-94
2023/06/08 09:38:28;;;;;;;2.85;1.90;;;;;;;24.18;34.93;99357.16;5097075;28;20065;-87
2023/06/08 09:41:16;;;;;;;3.80;2.25;;;;;;;24.11;36.16;99344.00;5064138;28;20087;-86
2023/06/08 09:43:43;;;;;;;4.00;2.15;;;;;;;24.16;37.02;99342.97;5065799;28;20019;-87
2023/06/08 09:46:16;;;;;;;4.25;2.00;;;;;;;24.18;37.05;99346.16;5065938;28;20027;-87
2023/06/08 09:48:54;;;;;;;5.15;2.42;;;;;;;24.18;36.73;99340.66;5098300;28;20032;-84
2023/06/08 09:51:21;;;;;;;3.25;2.17;;;;;;;24.19;36.74;99337.50;5095713;28;20077;-88
2023/06/08 09:53:57;;;;;;;12.35;2.15;;;;;;;24.15;35.56;99342.13;5073096;28;20027;-88
2023/06/08 09:56:24;;;;;;;3.63;1.98;;;;;;;24.20;35.32;99346.59;5070611;28;20031;-90
2023/06/08 09:58:58;;;;;;;6.90;2.20;;;;;;;24.26;35.23;99338.81;5065919;28;20083;-89
2023/06/08 10:01:41;;;;;;;3.50;2.15;;;;;;;24.50;34.91;99352.31;5067504;28;20814;-87
2023/06/08 10:04:48;;;;;;;;;;;;;;;;;;;;;
2023/06/08 10:07:19;;;;;;;8.30;2.33;;;;;;;24.63;33.97;99330.16;5117451;27;20540;-87
2023/06/08 10:09:45;;;;;;;4.22;2.05;;;;;;;24.68;33.71;99325.16;5067110;28;20081;-89
2023/06/08 10:12:11;;;;;;;5.03;2.17;;;;;;;24.71;33.78;99343.69;5067787;28;20483;-90
2023/06/08 10:14:36;;;;;;;3.58;2.00;;;;;;;24.61;32.96;99325.00;5074174;28;20031;-89
2023/06/08 10:17:04;;;;;;;4.45;2.10;;;;;;;24.90;32.95;99347.56;5074517;28;20039;-90
2023/06/08 10:19:32;;;;;;;5.60;3.65;;;;;;;24.91;32.99;99338.16;5072869;28;20202;-89
2023/06/08 10:21:58;;;;;;;28.33;16.23;;;;;;;24.70;33.23;99317.34;5091003;28;20023;-89
2023/06/08 10:25:44;;;;;;;3.72;1.80;;;;;;;25.00;31.85;99341.47;5091593;28;20408;-90
2023/06/08 10:27:52;;;;;;;6.55;2.60;;;;;;;24.92;31.52;99312.19;5113939;28;20031;-89
2023/06/08 10:30:42;;;;;;;4.47;1.67;;;;;;;25.08;31.93;99325.88;5098472;28;20041;-95
2023/06/08 10:36:13;;;;;;;2.92;2.40;;;;;;;25.11;30.95;99292.88;5107272;28;20041;-96
2023/06/08 10:39:23;;;;;;;3.17;1.83;;;;;;;25.07;30.25;99305.78;5080913;28;20024;-95
2023/06/08 10:42:26;;;;;;;2.60;1.50;;;;;;;25.15;29.38;99318.53;5068461;28;20047;-96
2023/06/08 10:45:13;;;;;;;3.67;1.95;;;;;;;24.93;29.39;99297.28;5061389;28;20138;-96
2023/06/08 10:47:48;;;;;;;2.20;1.50;;;;;;;24.91;29.71;99294.09;5047194;28;20084;-96
2023/06/08 10:50:15;;;;;;;4.95;1.95;;;;;;;25.14;29.39;99305.91;5065231;28;20059;-95
2023/06/08 10:52:44;;;;;;;3.63;1.95;;;;;;;25.18;29.43;99304.00;5107349;28;20034;-96
2023/06/08 10:55:31;;;;;;;8.13;1.80;;;;;;;25.09;29.71;99288.88;5051778;28;20121;-94
2023/06/08 10:58:20;;;;;;;6.70;1.80;;;;;;;25.18;28.74;99294.94;5063505;28;20520;-91
2023/06/08 11:00:52;;;;;;;6.47;2.10;;;;;;;25.24;29.21;99282.47;5084767;28;20052;-91
2023/06/08 11:03:27;;;;;;;5.30;3.50;;;;;;;25.27;28.19;99281.72;5033840;28;20040;-95
2023/06/08 11:09:36;;;;;;;7.28;2.03;;;;;;;25.17;29.03;99274.88;5025353;28;20048;-90
2023/06/08 11:12:53;;;;;;;3.90;2.13;;;;;;;25.20;28.17;99268.63;5065840;28;20043;-90
2023/06/08 11:18:14;;;;;;;3.55;1.60;;;;;;;25.27;28.07;99267.16;5102405;28;20035;-89
2023/06/08 11:20:41;;;;;;;3.22;1.80;;;;;;;25.19;28.77;99246.91;5089237;28;20027;-89
2023/06/08 11:23:08;;;;;;;5.55;2.00;;;;;;;25.34;28.93;99248.00;5088165;28;20011;-91
2023/06/08 11:25:35;;;;;;;4.90;2.10;;;;;;;25.68;28.58;99270.91;5075641;28;20038;-94
2023/06/08 11:28:03;;;;;;;3.35;1.90;;;;;;;25.57;27.98;99265.25;5078266;28;20023;-96
2023/06/08 11:30:36;;;;;;;4.35;1.90;;;;;;;25.70;27.85;99278.81;5096568;28;20023;-96
2023/06/08 11:33:07;;;;;;;4.03;1.90;;;;;;;25.70;28.05;99256.75;5129785;28;20105;-96
2023/06/08 11:35:39;;;;;;;6.00;3.38;;;;;;;25.79;27.92;99251.75;5096081;28;20007;-95
2023/06/08 11:38:12;;;;;;;5.38;1.90;;;;;;;25.91;26.77;99259.81;5099032;28;20045;-96
2023/06/08 11:40:41;;;;;;;3.60;1.73;;;;;;;25.81;26.46;99252.16;5112739;28;20040;-96
2023/06/08 11:43:09;;;;;;;6.88;2.58;;;;;;;25.64;26.39;99241.72;5082114;28;20027;-95
2023/06/08 11:45:42;;;;;;;6.63;2.40;;;;;;;25.48;25.15;99228.09;5080664;28;20038;-96
2023/06/08 11:48:07;;;;;;;3.25;2.20;;;;;;;25.70;25.20;99243.75;5128624;28;20031;-96
2023/06/08 11:50:36;;;;;;;3.10;2.08;;;;;;;25.89;25.77;99255.81;5075173;28;20121;-94
2023/06/08 11:53:25;;;;;;;5.55;1.80;;;;;;;25.80;25.79;99236.81;5108431;28;20386;-95
2023/06/08 11:55:51;;;;;;;4.28;2.05;;;;;;;26.00;25.18;99243.78;5088317;28;20113;-94